createdAt,value
2022-11-28T00:01:32.403Z,99696.19
2022-11-28T00:04:00.257Z,99682.53
2022-11-28T00:06:28.796Z,99687.69
2022-11-28T00:08:59.310Z,99680.19
2022-11-28T00:11:27.793Z,99683.38
2022-11-28T00:13:56.314Z,99695.53
2022-11-28T00:16:25.206Z,99684.03
2022-11-28T00:18:55.945Z,99679.38
2022-11-28T00:21:24.899Z,99664.72
2022-11-28T00:23:53.073Z,99673.38
2022-11-28T00:26:25.410Z,99656.06
2022-11-28T00:28:53.380Z,99663.38
2022-11-28T00:31:22.904Z,99673.53
2022-11-28T00:33:50.824Z,99679.88
2022-11-28T00:36:20.783Z,99680.38
2022-11-28T00:38:48.806Z,99685.03
2022-11-28T00:41:18.670Z,99688.34
2022-11-28T00:43:47.852Z,99691.84
2022-11-28T00:46:16.609Z,99687.19
2022-11-28T00:48:44.816Z,99677.03
2022-11-28T00:51:14.370Z,99685.19
2022-11-28T00:53:44.912Z,99679.03
2022-11-28T00:56:14.717Z,99676.03
2022-11-28T00:58:43.478Z,99664.72
2022-11-28T01:01:13.045Z,99665.72
2022-11-28T01:03:41.821Z,99667.06
2022-11-28T01:06:10.898Z,99675.03
2022-11-28T01:08:39.159Z,99667.22
2022-11-28T01:11:13.954Z,99672.22
2022-11-28T01:13:42.234Z,99685.00
2022-11-28T01:16:10.581Z,99685.00
2022-11-28T01:18:39.114Z,99685.50
2022-11-28T01:21:07.976Z,99686.84
2022-11-28T01:23:36.142Z,99683.00
2022-11-28T01:26:05.251Z,99677.72
2022-11-28T01:28:34.827Z,99673.72
2022-11-28T01:31:06.453Z,99669.53
2022-11-28T01:33:34.388Z,99669.53
2022-11-28T01:36:02.766Z,99686.34
2022-11-28T01:38:31.314Z,99676.84
2022-11-28T01:40:59.570Z,99682.84
2022-11-28T01:43:27.461Z,99681.34
2022-11-28T01:45:57.180Z,99670.69
2022-11-28T01:48:29.161Z,99676.34
2022-11-28T01:50:59.801Z,99673.69
2022-11-28T01:53:30.197Z,99673.19
2022-11-28T01:56:03.224Z,99669.03
2022-11-28T01:58:33.752Z,99654.69
2022-11-28T02:01:03.728Z,99643.03
2022-11-28T02:03:39.372Z,99638.06
2022-11-28T02:06:07.611Z,99625.91
2022-11-28T02:08:37.095Z,99622.75
2022-11-28T02:11:22.553Z,99610.78
2022-11-28T02:14:00.979Z,99604.44
2022-11-28T02:16:44.377Z,99604.13
2022-11-28T02:19:44.365Z,99601.16
2022-11-28T02:22:18.172Z,99598.81
2022-11-28T02:25:05.068Z,99597.81
2022-11-28T02:28:12.063Z,99594.47
2022-11-28T02:30:54.010Z,99588.81
2022-11-28T02:33:28.552Z,99592.16
2022-11-28T02:36:05.757Z,99588.16
2022-11-28T02:38:47.254Z,99587.66
2022-11-28T02:41:25.623Z,99587.81
2022-11-28T02:44:01.477Z,99594.16
2022-11-28T02:46:38.865Z,99591.16
2022-11-28T02:49:13.727Z,99590.81
2022-11-28T02:51:44.713Z,99589.47
2022-11-28T02:54:14.612Z,99585.66
2022-11-28T02:56:49.326Z,99580.50
2022-11-28T02:59:32.348Z,99581.84
2022-11-28T03:02:01.985Z,99578.16
2022-11-28T03:04:43.108Z,99571.84
2022-11-28T03:07:19.844Z,99571.50
2022-11-28T03:10:10.738Z,99571.50
2022-11-28T03:12:52.035Z,99569.03
2022-11-28T03:15:25.082Z,99566.19
2022-11-28T03:18:01.649Z,99554.22
2022-11-28T03:20:43.947Z,99550.38
2022-11-28T03:23:17.340Z,99540.41
2022-11-28T03:25:57.249Z,99547.88
2022-11-28T03:28:30.932Z,99544.25
2022-11-28T03:31:02.196Z,99546.22
2022-11-28T03:33:34.518Z,99545.72
2022-11-28T03:36:07.514Z,99543.72
2022-11-28T03:38:38.365Z,99554.38
2022-11-28T03:41:11.869Z,99549.25
2022-11-28T03:43:44.063Z,99538.59
2022-11-28T03:46:17.030Z,99534.94
2022-11-28T03:48:49.091Z,99535.44
2022-11-28T03:51:21.985Z,99533.91
2022-11-28T03:53:55.257Z,99529.25
2022-11-28T03:56:27.610Z,99523.28
2022-11-28T03:59:01.237Z,99521.63
2022-11-28T04:01:34.405Z,99519.63
2022-11-28T04:04:15.487Z,99509.97
2022-11-28T04:06:55.347Z,99499.50
2022-11-28T04:09:36.482Z,99494.00
2022-11-28T04:12:10.948Z,99494.66
2022-11-28T04:14:42.934Z,99483.69
2022-11-28T04:17:17.915Z,99484.31
2022-11-28T04:19:51.971Z,99486.81
2022-11-28T04:22:25.684Z,99484.97
2022-11-28T04:24:57.140Z,99480.19
2022-11-28T04:27:30.107Z,99510.97
2022-11-28T04:30:02.088Z,99574.19
2022-11-28T04:32:32.877Z,99542.88
2022-11-28T04:35:06.385Z,99534.22
2022-11-28T04:37:38.457Z,99562.72
2022-11-28T04:40:09.764Z,99543.25
2022-11-28T04:42:42.922Z,99544.75
2022-11-28T04:45:15.673Z,99541.56
2022-11-28T04:47:44.391Z,99530.25
2022-11-28T04:50:13.653Z,99516.94
2022-11-28T04:52:47.962Z,99515.25
2022-11-28T04:55:28.064Z,99510.31
2022-11-28T04:58:01.181Z,99497.66
2022-11-28T05:00:29.316Z,99495.00
2022-11-28T05:02:58.076Z,99496.00
2022-11-28T05:05:28.472Z,99491.34
2022-11-28T05:07:59.059Z,99487.19
2022-11-28T05:10:27.034Z,99481.34
2022-11-28T05:12:54.955Z,99499.31
2022-11-28T05:15:22.810Z,99499.00
2022-11-28T05:17:50.671Z,99499.00
2022-11-28T05:20:18.563Z,99489.00
2022-11-28T05:22:46.433Z,99492.84
2022-11-28T05:25:15.920Z,99485.03
2022-11-28T05:27:43.818Z,99475.03
2022-11-28T05:30:13.218Z,99462.06
2022-11-28T05:32:41.296Z,99469.72
2022-11-28T05:35:10.039Z,99468.06
2022-11-28T05:37:38.801Z,99469.38
2022-11-28T05:40:08.305Z,99456.75
2022-11-28T05:42:37.880Z,99461.72
2022-11-28T05:45:06.271Z,99464.38
2022-11-28T05:47:34.577Z,99454.25
2022-11-28T05:50:02.662Z,99468.06
2022-11-28T05:52:32.313Z,99487.34
2022-11-28T05:55:01.694Z,99469.38
2022-11-28T05:57:32.029Z,99469.72
2022-11-28T06:00:01.313Z,99470.03
2022-11-28T06:02:29.485Z,99471.72
2022-11-28T06:04:57.404Z,99456.78
2022-11-28T06:07:25.646Z,99454.41
2022-11-28T06:09:53.497Z,99442.28
2022-11-28T06:12:21.345Z,99430.78
2022-11-28T06:14:49.244Z,99433.63
2022-11-28T06:17:18.576Z,99436.81
2022-11-28T06:19:46.464Z,99429.47
2022-11-28T06:22:14.592Z,99444.31
2022-11-28T06:24:42.879Z,99437.16
2022-11-28T06:27:10.700Z,99450.63
2022-11-28T06:29:38.592Z,99459.25
2022-11-28T06:32:06.775Z,99455.59
2022-11-28T06:34:36.148Z,99467.38
2022-11-28T06:37:04.110Z,99469.06
2022-11-28T06:39:32.094Z,99464.91
2022-11-28T06:41:59.949Z,99465.06
2022-11-28T06:44:27.841Z,99471.03
2022-11-28T06:46:55.922Z,99469.38
2022-11-28T06:49:24.073Z,99480.03
2022-11-28T06:51:53.338Z,99482.03
2022-11-28T06:54:21.460Z,99475.38
2022-11-28T06:56:49.512Z,99480.34
2022-11-28T06:59:17.390Z,99478.69
2022-11-28T07:01:45.425Z,99483.53
2022-11-28T07:04:13.653Z,99483.34
2022-11-28T07:06:41.668Z,99467.56
2022-11-28T07:09:11.391Z,99466.72
2022-11-28T07:11:43.010Z,99466.56
2022-11-28T07:14:11.548Z,99456.41
2022-11-28T07:16:39.589Z,99471.03
2022-11-28T07:19:07.701Z,99473.72
2022-11-28T07:21:35.605Z,99470.88
2022-11-28T07:24:03.497Z,99466.38
2022-11-28T07:26:33.977Z,99469.22
2022-11-28T07:29:02.078Z,99472.38
2022-11-28T07:31:32.602Z,99475.38
2022-11-28T07:34:03.608Z,99493.00
2022-11-28T07:36:32.439Z,99492.50
2022-11-28T07:39:02.439Z,99493.13
2022-11-28T07:41:32.112Z,99491.66
2022-11-28T07:44:02.803Z,99478.69
2022-11-28T07:46:32.628Z,99469.38
2022-11-28T07:49:00.788Z,99462.03
2022-11-28T07:51:30.989Z,99477.31
2022-11-28T07:53:59.234Z,99473.66
2022-11-28T07:56:44.353Z,99472.00
2022-11-28T07:59:18.934Z,99479.97
2022-11-28T08:01:46.866Z,99475.47
2022-11-28T08:04:14.798Z,99480.16
2022-11-28T08:06:44.391Z,99479.97
2022-11-28T08:09:12.972Z,99461.50
2022-11-28T08:11:43.076Z,99473.47
2022-11-28T08:14:11.119Z,99470.63
2022-11-28T08:16:45.066Z,99467.66
2022-11-28T08:19:13.249Z,99460.34
2022-11-28T08:21:41.144Z,99461.00
2022-11-28T08:24:09.452Z,99472.31
2022-11-28T08:26:37.803Z,99472.66
2022-11-28T08:29:05.958Z,99475.47
2022-11-28T08:31:36.092Z,99474.31
2022-11-28T08:34:07.085Z,99477.59
2022-11-28T08:36:35.225Z,99479.91
2022-11-28T08:41:52.168Z,99477.44
2022-11-28T08:44:20.028Z,99471.41
2022-11-28T08:46:47.916Z,99473.56
2022-11-28T08:49:17.186Z,99474.63
2022-11-28T08:51:45.188Z,99476.91
2022-11-28T08:54:13.437Z,99481.22
2022-11-28T08:56:41.679Z,99483.22
2022-11-28T08:59:10.568Z,99486.66
2022-11-28T09:01:39.641Z,99494.66
2022-11-28T09:04:07.724Z,99500.16
2022-11-28T09:06:39.958Z,99496.97
2022-11-28T09:09:09.159Z,99490.28
2022-11-28T09:11:37.228Z,99488.13
2022-11-28T09:14:05.405Z,99487.56
2022-11-28T09:16:33.404Z,99480.94
2022-11-28T09:19:01.407Z,99478.09
2022-11-28T09:21:29.281Z,99478.09
2022-11-28T09:23:58.558Z,99478.81
2022-11-28T09:26:26.939Z,99477.13
2022-11-28T09:28:55.157Z,99486.38
2022-11-28T09:31:23.454Z,99487.63
2022-11-28T09:33:51.518Z,99488.09
2022-11-28T09:36:21.201Z,99488.03
2022-11-28T09:38:49.715Z,99480.09
2022-11-28T09:41:41.313Z,99486.00
2022-11-28T09:44:19.133Z,99475.94
2022-11-28T09:46:49.403Z,99478.69
2022-11-28T09:49:41.089Z,99479.97
2022-11-28T09:52:22.937Z,99473.47
2022-11-28T09:54:58.633Z,99471.00
2022-11-28T09:57:35.554Z,99472.81
2022-11-28T10:00:05.328Z,99474.78
2022-11-28T10:02:38.916Z,99467.28
2022-11-28T10:05:16.580Z,99472.31
2022-11-28T10:07:56.597Z,99469.25
2022-11-28T10:10:34.137Z,99463.38
2022-11-28T10:13:13.731Z,99463.72
2022-11-28T10:15:49.415Z,99459.78
2022-11-28T10:18:35.843Z,99460.81
2022-11-28T10:21:10.737Z,99463.19
2022-11-28T10:23:42.329Z,99466.97
2022-11-28T10:26:18.028Z,99466.94
2022-11-28T10:28:51.458Z,99470.97
2022-11-28T10:31:28.425Z,99460.78
2022-11-28T10:34:00.259Z,99466.19
2022-11-28T10:36:32.051Z,99461.75
2022-11-28T10:39:06.185Z,99475.69
2022-11-28T10:41:42.077Z,99473.00
2022-11-28T10:44:23.815Z,99461.22
2022-11-28T10:47:00.191Z,99455.16
2022-11-28T10:49:41.220Z,99456.09
2022-11-28T10:52:16.370Z,99451.28
2022-11-28T10:55:06.121Z,99456.09
2022-11-28T10:57:40.898Z,99447.44
2022-11-28T11:00:14.414Z,99446.69
2022-11-28T11:02:46.563Z,99448.09
2022-11-28T11:05:16.756Z,99448.88
2022-11-28T11:07:50.432Z,99444.84
2022-11-28T11:10:20.514Z,99447.91
2022-11-28T11:12:51.348Z,99447.31
2022-11-28T11:15:24.740Z,99444.94
2022-11-28T11:17:52.782Z,99439.63
2022-11-28T11:20:30.482Z,99438.50
2022-11-28T11:22:59.415Z,99434.63
2022-11-28T11:25:29.279Z,99434.00
2022-11-28T11:28:01.035Z,99430.44
2022-11-28T11:30:32.114Z,99423.19
2022-11-28T11:33:01.638Z,99427.59
2022-11-28T11:35:35.662Z,99422.94
2022-11-28T11:38:18.320Z,99428.28
2022-11-28T11:40:46.610Z,99428.44
2022-11-28T11:43:28.767Z,99422.94
2022-11-28T11:46:09.355Z,99417.22
2022-11-28T11:48:40.138Z,99421.91
2022-11-28T11:51:08.822Z,99414.06
2022-11-28T11:53:36.731Z,99410.06
2022-11-28T11:56:05.473Z,99403.28
2022-11-28T11:58:41.802Z,99401.16
2022-11-28T12:01:13.024Z,99407.63
2022-11-28T12:03:42.944Z,99405.59
2022-11-28T12:06:16.947Z,99412.06
2022-11-28T12:08:51.402Z,99410.25
2022-11-28T12:11:25.286Z,99410.38
2022-11-28T12:13:54.010Z,99406.81
2022-11-28T12:16:41.230Z,99414.78
2022-11-28T12:19:21.471Z,99405.00
2022-11-28T12:22:03.858Z,99399.25
2022-11-28T12:24:41.587Z,99396.75
2022-11-28T12:27:26.409Z,99397.00
2022-11-28T12:30:06.599Z,99392.31
2022-11-28T12:32:48.979Z,99384.31
2022-11-28T12:35:28.728Z,99386.34
2022-11-28T12:38:12.071Z,99378.66
2022-11-28T12:40:51.130Z,99379.47
2022-11-28T12:43:30.051Z,99376.84
2022-11-28T12:46:05.585Z,99379.69
2022-11-28T12:48:52.995Z,99377.75
2022-11-28T12:51:32.463Z,99370.44
2022-11-28T12:54:14.427Z,99373.13
2022-11-28T12:56:49.776Z,99375.84
2022-11-28T12:59:25.925Z,99378.19
2022-11-28T13:02:08.220Z,99377.19
2022-11-28T13:05:10.752Z,99376.63
2022-11-28T13:07:48.483Z,99373.53
2022-11-28T13:10:25.873Z,99378.06
2022-11-28T13:13:00.507Z,99368.84
2022-11-28T13:15:45.751Z,99373.03
2022-11-28T13:18:30.308Z,99373.31
2022-11-28T13:21:08.025Z,99372.34
2022-11-28T13:23:46.425Z,99375.28
2022-11-28T13:26:24.831Z,99369.34
2022-11-28T13:29:00.428Z,99367.69
2022-11-28T13:31:32.865Z,99360.94
2022-11-28T13:34:01.845Z,99365.66
2022-11-28T13:39:36.995Z,99362.03
2022-11-28T13:42:59.037Z,99373.72
2022-11-28T13:45:26.707Z,99374.00
2022-11-28T13:48:00.949Z,99378.00
2022-11-28T13:50:40.918Z,99365.53
2022-11-28T13:53:29.955Z,99368.66
2022-11-28T13:56:28.142Z,99375.19
2022-11-28T13:59:00.764Z,99363.91
2022-11-28T14:01:31.296Z,99367.59
2022-11-28T14:04:12.376Z,99365.91
2022-11-28T14:06:46.024Z,99371.94
2022-11-28T14:09:29.755Z,99368.59
2022-11-28T14:12:20.450Z,99380.31
2022-11-28T14:15:08.916Z,99373.84
2022-11-28T14:18:31.901Z,99370.72
2022-11-28T14:21:04.484Z,99376.47
2022-11-28T14:23:43.169Z,99371.75
2022-11-28T14:26:20.772Z,99377.31
2022-11-28T14:28:51.896Z,99374.19
2022-11-28T14:31:32.128Z,99373.81
2022-11-28T14:34:02.657Z,99371.56
2022-11-28T14:36:34.233Z,99373.91
2022-11-28T14:39:10.741Z,99376.56
2022-11-28T14:42:30.473Z,99380.91
2022-11-28T14:45:25.312Z,99372.16
2022-11-28T14:48:18.696Z,99370.16
2022-11-28T14:50:59.086Z,99364.31
2022-11-28T14:53:50.040Z,99373.91
2022-11-28T14:56:29.691Z,99375.28
2022-11-28T14:59:01.485Z,99376.66
2022-11-28T15:01:46.301Z,99376.66
2022-11-28T15:04:48.968Z,99373.25
2022-11-28T15:07:27.840Z,99380.91
2022-11-28T15:10:07.805Z,99377.59
2022-11-28T15:12:44.730Z,99379.25
2022-11-28T15:15:17.041Z,99370.13
2022-11-28T15:17:48.689Z,99369.66
2022-11-28T15:20:25.264Z,99372.06
2022-11-28T15:22:53.487Z,99381.91
2022-11-28T15:25:22.517Z,99382.28
2022-11-28T15:27:50.922Z,99377.50
2022-11-28T15:30:20.659Z,99379.25
2022-11-28T15:32:49.203Z,99384.03
2022-11-28T15:35:19.549Z,99373.00
2022-11-28T15:37:50.030Z,99377.34
2022-11-28T15:40:21.639Z,99376.94
2022-11-28T15:42:51.279Z,99381.47
2022-11-28T15:45:25.549Z,99378.41
2022-11-28T15:47:55.283Z,99370.41
2022-11-28T15:50:27.040Z,99374.09
2022-11-28T15:52:56.730Z,99378.53
2022-11-28T15:55:25.072Z,99375.59
2022-11-28T15:57:53.023Z,99373.47
2022-11-28T16:00:22.088Z,99369.22
2022-11-28T16:02:50.188Z,99376.41
2022-11-28T16:05:21.880Z,99365.00
2022-11-28T16:07:52.466Z,99370.91
2022-11-28T16:10:25.957Z,99369.88
2022-11-28T16:12:59.216Z,99379.28
2022-11-28T16:15:28.230Z,99368.41
2022-11-28T16:17:57.122Z,99372.38
2022-11-28T16:20:27.604Z,99369.22
2022-11-28T16:23:02.605Z,99377.91
2022-11-28T16:25:32.615Z,99378.25
2022-11-28T16:28:00.783Z,99382.97
2022-11-28T16:30:34.731Z,99369.59
2022-11-28T16:33:02.608Z,99373.19
2022-11-28T16:35:33.884Z,99371.91
2022-11-28T16:38:17.565Z,99376.97
2022-11-28T16:40:46.049Z,99376.88
2022-11-28T16:43:22.325Z,99379.72
2022-11-28T16:45:59.649Z,99375.59
2022-11-28T16:48:29.771Z,99376.88
2022-11-28T16:51:40.792Z,99381.56
2022-11-28T16:54:30.673Z,99380.38
2022-11-28T16:57:10.431Z,99378.53
2022-11-28T16:59:38.429Z,99381.09
2022-11-28T17:02:14.355Z,99384.72
2022-11-28T17:04:42.424Z,99384.91
2022-11-28T17:07:14.083Z,99383.59
2022-11-28T17:09:44.553Z,99388.59
2022-11-28T17:12:21.042Z,99387.94
2022-11-28T17:14:48.906Z,99388.94
2022-11-28T17:17:18.110Z,99381.66
2022-11-28T17:19:47.339Z,99385.63
2022-11-28T17:22:17.969Z,99386.28
2022-11-28T17:24:48.359Z,99387.63
2022-11-28T17:27:17.384Z,99386.75
2022-11-28T17:29:45.470Z,99385.44
2022-11-28T17:32:14.908Z,99390.53
2022-11-28T17:34:43.694Z,99387.56
2022-11-28T17:37:11.956Z,99393.63
2022-11-28T17:39:39.961Z,99391.25
2022-11-28T17:42:11.010Z,99391.16
2022-11-28T17:44:39.423Z,99392.91
2022-11-28T17:47:07.496Z,99391.63
2022-11-28T17:49:35.413Z,99389.41
2022-11-28T17:52:03.723Z,99391.44
2022-11-28T17:54:31.926Z,99388.28
2022-11-28T17:57:00.511Z,99393.63
2022-11-28T17:59:30.745Z,99391.16
2022-11-28T18:01:58.937Z,99397.59
2022-11-28T18:04:27.331Z,99398.63
2022-11-28T18:06:58.210Z,99394.38
2022-11-28T18:09:27.001Z,99387.38
2022-11-28T18:11:54.871Z,99391.50
2022-11-28T18:14:22.808Z,99398.41
2022-11-28T18:16:52.390Z,99399.25
2022-11-28T18:19:20.375Z,99395.28
2022-11-28T18:21:48.389Z,99394.72
2022-11-28T18:24:16.454Z,99398.41
2022-11-28T18:26:44.654Z,99396.28
2022-11-28T18:29:13.091Z,99391.78
2022-11-28T18:31:41.534Z,99386.84
2022-11-28T18:34:11.305Z,99383.88
2022-11-28T18:36:39.709Z,99397.78
2022-11-28T18:39:09.900Z,99391.34
2022-11-28T18:41:39.998Z,99398.41
2022-11-28T18:44:08.247Z,99392.34
2022-11-28T18:46:36.432Z,99396.88
2022-11-28T18:49:04.427Z,99396.22
2022-11-28T18:51:34.913Z,99398.59
2022-11-28T18:54:04.921Z,99410.22
2022-11-28T18:56:34.273Z,99400.25
2022-11-28T18:59:02.241Z,99411.59
2022-11-28T19:01:32.306Z,99408.91
2022-11-28T19:04:02.194Z,99411.13
2022-11-28T19:06:30.639Z,99405.59
2022-11-28T19:09:01.914Z,99406.78
2022-11-28T19:11:30.534Z,99408.91
2022-11-28T19:13:59.319Z,99412.59
2022-11-28T19:16:29.925Z,99407.38
2022-11-28T19:18:58.442Z,99403.59
2022-11-28T19:21:28.857Z,99410.59
2022-11-28T19:23:57.262Z,99410.59
2022-11-28T19:26:29.099Z,99418.78
2022-11-28T19:28:59.926Z,99415.09
2022-11-28T19:31:29.632Z,99415.28
2022-11-28T19:34:01.883Z,99412.97
2022-11-28T19:36:31.078Z,99416.28
2022-11-28T19:38:59.083Z,99409.28
2022-11-28T19:41:30.452Z,99412.97
2022-11-28T19:43:58.390Z,99416.63
2022-11-28T19:46:31.857Z,99418.59
2022-11-28T19:49:03.379Z,99418.88
2022-11-28T19:51:31.338Z,99414.44
2022-11-28T19:54:03.518Z,99414.25
2022-11-28T19:56:33.854Z,99414.97
2022-11-28T19:59:02.058Z,99421.97
2022-11-28T20:01:29.986Z,99418.31
2022-11-28T20:03:59.349Z,99416.47
2022-11-28T20:06:29.063Z,99413.31
2022-11-28T20:09:00.272Z,99421.97
2022-11-28T20:11:30.254Z,99421.25
2022-11-28T20:14:01.424Z,99422.81
2022-11-28T20:16:30.632Z,99425.31
2022-11-28T20:19:00.389Z,99424.59
2022-11-28T20:21:29.218Z,99424.59
2022-11-28T20:24:02.620Z,99425.31
2022-11-28T20:26:30.892Z,99423.75
2022-11-28T20:29:00.800Z,99433.78
2022-11-28T20:31:33.794Z,99432.31
2022-11-28T20:34:02.704Z,99433.13
2022-11-28T20:36:32.601Z,99441.25
2022-11-28T20:39:00.884Z,99435.25
2022-11-28T20:41:30.012Z,99437.56
2022-11-28T20:44:00.157Z,99444.56
2022-11-28T20:46:32.010Z,99437.00
2022-11-28T20:49:01.741Z,99447.03
2022-11-28T20:51:31.157Z,99437.75
2022-11-28T20:54:00.112Z,99440.97
2022-11-28T20:56:30.738Z,99436.47
2022-11-28T20:59:00.953Z,99441.16
2022-11-28T21:01:33.272Z,99426.25
2022-11-28T21:04:02.392Z,99436.28
2022-11-28T21:06:30.832Z,99441.44
2022-11-28T21:08:58.794Z,99438.59
2022-11-28T21:14:15.561Z,99436.16
2022-11-28T21:16:44.963Z,99441.63
2022-11-28T21:19:13.986Z,99433.31
2022-11-28T21:21:42.886Z,99432.94
2022-11-28T21:24:13.897Z,99441.06
2022-11-28T21:26:47.885Z,99442.25
2022-11-28T21:29:19.847Z,99430.81
2022-11-28T21:31:49.254Z,99431.84
2022-11-28T21:34:19.371Z,99430.00
2022-11-28T21:36:47.471Z,99436.00
2022-11-28T21:39:17.655Z,99431.84
2022-11-28T21:41:45.640Z,99438.59
2022-11-28T21:44:13.547Z,99426.72
2022-11-28T21:46:41.473Z,99424.66
2022-11-28T21:49:11.115Z,99426.31
2022-11-28T21:51:45.895Z,99423.66
2022-11-28T21:54:14.224Z,99428.91
2022-11-28T21:56:42.626Z,99428.91
2022-11-28T21:59:10.563Z,99429.63
2022-11-28T22:01:38.669Z,99420.16
2022-11-28T22:04:06.947Z,99420.97
2022-11-28T22:06:36.234Z,99425.13
2022-11-28T22:09:09.445Z,99425.22
2022-11-28T22:11:38.516Z,99429.56
2022-11-28T22:14:06.427Z,99423.75
2022-11-28T22:16:34.337Z,99436.16
2022-11-28T22:19:02.449Z,99431.22
2022-11-28T22:24:19.789Z,99427.91
2022-11-28T22:26:47.706Z,99429.16
2022-11-28T22:29:15.694Z,99436.09
2022-11-28T22:31:43.652Z,99425.41
2022-11-28T22:34:11.925Z,99428.97
2022-11-28T22:36:40.433Z,99430.16
2022-11-28T22:39:08.293Z,99429.34
2022-11-28T22:41:37.529Z,99430.63
2022-11-28T22:44:05.674Z,99431.59
2022-11-28T22:46:34.243Z,99422.81
2022-11-28T22:49:02.846Z,99441.03
2022-11-28T22:51:31.535Z,99437.00
2022-11-28T22:54:01.275Z,99437.63
2022-11-28T22:56:29.707Z,99437.28
2022-11-28T22:58:59.319Z,99434.25
2022-11-28T23:01:29.669Z,99430.28
2022-11-28T23:03:58.008Z,99431.84
2022-11-28T23:06:28.074Z,99439.94
2022-11-28T23:08:56.838Z,99440.50
2022-11-28T23:11:26.633Z,99435.97
2022-11-28T23:13:55.040Z,99433.13
2022-11-28T23:16:26.040Z,99433.97
2022-11-28T23:18:55.737Z,99445.19
2022-11-28T23:21:24.959Z,99440.19
2022-11-28T23:23:53.151Z,99441.31
2022-11-28T23:26:24.405Z,99445.00
2022-11-28T23:28:52.753Z,99436.34
2022-11-28T23:31:22.968Z,99433.03
2022-11-28T23:33:53.544Z,99436.81
2022-11-28T23:36:24.036Z,99443.69
2022-11-28T23:38:53.853Z,99436.69
2022-11-28T23:41:21.813Z,99438.53
2022-11-28T23:43:50.174Z,99436.34
2022-11-28T23:46:19.401Z,99442.88
2022-11-28T23:48:48.659Z,99433.50
2022-11-28T23:51:19.594Z,99430.00
2022-11-28T23:53:47.567Z,99433.97
2022-11-28T23:56:18.635Z,99439.38
2022-11-28T23:58:46.855Z,99431.66
